sensor_id;sensor_type;location;lat;lon;timestamp;P1;durP1;ratioP1;P2;durP2;ratioP2
61317;SDS011;47201;40.428;-8.436;2022-09-09T00:08:07;56.25;;;17.55;;
61317;SDS011;47201;40.428;-8.436;2022-09-09T00:14:56;38.88;;;17.08;;
61317;SDS011;47201;40.428;-8.436;2022-09-09T00:17:04;38.20;;;12.48;;
61317;SDS011;47201;40.428;-8.436;2022-09-09T00:19:36;36.75;;;12.80;;
61317;SDS011;47201;40.428;-8.436;2022-09-09T00:21:48;36.58;;;12.93;;
61317;SDS011;47201;40.428;-8.436;2022-09-09T00:24:24;40.05;;;14.23;;
61317;SDS011;47201;40.428;-8.436;2022-09-09T00:26:32;35.20;;;13.15;;
61317;SDS011;47201;40.428;-8.436;2022-09-09T00:28:37;32.38;;;11.93;;
61317;SDS011;47201;40.428;-8.436;2022-09-09T00:30:46;36.28;;;12.73;;
61317;SDS011;47201;40.428;-8.436;2022-09-09T00:32:49;43.38;;;13.30;;
61317;SDS011;47201;40.428;-8.436;2022-09-09T00:34:55;32.45;;;12.95;;
61317;SDS011;47201;40.428;-8.436;2022-09-09T00:37:01;38.45;;;13.43;;
61317;SDS011;47201;40.428;-8.436;2022-09-09T00:39:08;35.92;;;13.88;;
61317;SDS011;47201;40.428;-8.436;2022-09-09T00:47:52;27.10;;;11.50;;
61317;SDS011;47201;40.428;-8.436;2022-09-09T00:56:42;24.90;;;9.27;;
61317;SDS011;47201;40.428;-8.436;2022-09-09T01:01:11;35.75;;;10.75;;
61317;SDS011;47201;40.428;-8.436;2022-09-09T01:03:17;26.17;;;9.10;;
61317;SDS011;47201;40.428;-8.436;2022-09-09T01:07:47;25.95;;;10.43;;
61317;SDS011;47201;40.428;-8.436;2022-09-09T01:16:36;15.50;;;6.60;;
61317;SDS011;47201;40.428;-8.436;2022-09-09T01:18:44;11.23;;;6.38;;
61317;SDS011;47201;40.428;-8.436;2022-09-09T01:28:24;23.92;;;8.85;;
61317;SDS011;47201;40.428;-8.436;2022-09-09T01:30:37;24.85;;;9.05;;
61317;SDS011;47201;40.428;-8.436;2022-09-09T01:34:41;29.55;;;11.30;;
61317;SDS011;47201;40.428;-8.436;2022-09-09T01:39:00;28.90;;;10.43;;
61317;SDS011;47201;40.428;-8.436;2022-09-09T01:41:02;24.10;;;9.55;;
61317;SDS011;47201;40.428;-8.436;2022-09-09T01:43:13;24.65;;;8.95;;
61317;SDS011;47201;40.428;-8.436;2022-09-09T01:47:15;21.52;;;7.97;;
61317;SDS011;47201;40.428;-8.436;2022-09-09T01:49:51;20.90;;;8.18;;
61317;SDS011;47201;40.428;-8.436;2022-09-09T01:51:57;21.00;;;8.13;;
61317;SDS011;47201;40.428;-8.436;2022-09-09T01:54:04;26.25;;;9.73;;
61317;SDS011;47201;40.428;-8.436;2022-09-09T01:59:08;19.38;;;7.25;;
61317;SDS011;47201;40.428;-8.436;2022-09-09T02:03:28;15.43;;;7.30;;
61317;SDS011;47201;40.428;-8.436;2022-09-09T02:05:36;22.60;;;8.68;;
61317;SDS011;47201;40.428;-8.436;2022-09-09T02:07:48;21.27;;;8.93;;
61317;SDS011;47201;40.428;-8.436;2022-09-09T02:12:23;18.50;;;10.93;;
61317;SDS011;47201;40.428;-8.436;2022-09-09T02:14:31;17.95;;;9.35;;
61317;SDS011;47201;40.428;-8.436;2022-09-09T02:16:47;15.48;;;7.47;;
61317;SDS011;47201;40.428;-8.436;2022-09-09T02:19:06;22.67;;;8.82;;
61317;SDS011;47201;40.428;-8.436;2022-09-09T02:21:37;21.27;;;7.75;;
61317;SDS011;47201;40.428;-8.436;2022-09-09T02:23:37;11.70;;;5.90;;
61317;SDS011;47201;40.428;-8.436;2022-09-09T02:25:45;20.83;;;7.25;;
61317;SDS011;47201;40.428;-8.436;2022-09-09T02:27:54;16.13;;;7.15;;
61317;SDS011;47201;40.428;-8.436;2022-09-09T02:29:59;17.45;;;6.65;;
61317;SDS011;47201;40.428;-8.436;2022-09-09T02:32:23;18.23;;;7.28;;
61317;SDS011;47201;40.428;-8.436;2022-09-09T02:34:25;18.17;;;7.13;;
61317;SDS011;47201;40.428;-8.436;2022-09-09T02:36:30;17.02;;;6.57;;
61317;SDS011;47201;40.428;-8.436;2022-09-09T02:38:36;23.10;;;7.25;;
61317;SDS011;47201;40.428;-8.436;2022-09-09T02:40:46;17.10;;;7.68;;
61317;SDS011;47201;40.428;-8.436;2022-09-09T02:42:48;17.50;;;7.80;;
61317;SDS011;47201;40.428;-8.436;2022-09-09T02:44:51;30.33;;;10.52;;
61317;SDS011;47201;40.428;-8.436;2022-09-09T02:49:00;18.73;;;9.32;;
61317;SDS011;47201;40.428;-8.436;2022-09-09T02:53:17;21.92;;;10.18;;
61317;SDS011;47201;40.428;-8.436;2022-09-09T02:57:34;21.08;;;8.95;;
61317;SDS011;47201;40.428;-8.436;2022-09-09T02:59:39;19.50;;;7.00;;
61317;SDS011;47201;40.428;-8.436;2022-09-09T03:01:40;17.30;;;7.25;;
61317;SDS011;47201;40.428;-8.436;2022-09-09T03:03:42;18.85;;;6.45;;
61317;SDS011;47201;40.428;-8.436;2022-09-09T03:05:49;18.52;;;5.82;;
61317;SDS011;47201;40.428;-8.436;2022-09-09T03:07:49;15.70;;;6.35;;
61317;SDS011;47201;40.428;-8.436;2022-09-09T03:09:52;18.70;;;5.68;;
61317;SDS011;47201;40.428;-8.436;2022-09-09T03:11:54;10.23;;;6.65;;
61317;SDS011;47201;40.428;-8.436;2022-09-09T03:13:56;14.82;;;6.80;;
61317;SDS011;47201;40.428;-8.436;2022-09-09T03:15:58;14.93;;;6.38;;
61317;SDS011;47201;40.428;-8.436;2022-09-09T03:18:00;15.70;;;6.43;;
61317;SDS011;47201;40.428;-8.436;2022-09-09T03:20:02;11.10;;;6.40;;
61317;SDS011;47201;40.428;-8.436;2022-09-09T03:22:05;14.88;;;6.00;;
61317;SDS011;47201;40.428;-8.436;2022-09-09T03:24:08;11.68;;;6.43;;
61317;SDS011;47201;40.428;-8.436;2022-09-09T03:26:10;14.05;;;5.32;;
61317;SDS011;47201;40.428;-8.436;2022-09-09T03:28:16;11.38;;;5.75;;
61317;SDS011;47201;40.428;-8.436;2022-09-09T03:30:17;9.95;;;5.32;;
61317;SDS011;47201;40.428;-8.436;2022-09-09T03:32:18;12.77;;;4.00;;
61317;SDS011;47201;40.428;-8.436;2022-09-09T03:34:20;8.85;;;4.50;;
61317;SDS011;47201;40.428;-8.436;2022-09-09T03:36:21;7.80;;;4.00;;
61317;SDS011;47201;40.428;-8.436;2022-09-09T03:38:25;15.75;;;4.53;;
61317;SDS011;47201;40.428;-8.436;2022-09-09T03:40:26;5.28;;;4.10;;
61317;SDS011;47201;40.428;-8.436;2022-09-09T03:42:27;7.55;;;4.00;;
61317;SDS011;47201;40.428;-8.436;2022-09-09T03:44:30;10.82;;;4.78;;
61317;SDS011;47201;40.428;-8.436;2022-09-09T03:46:31;7.88;;;4.93;;
61317;SDS011;47201;40.428;-8.436;2022-09-09T03:48:32;19.33;;;5.78;;
61317;SDS011;47201;40.428;-8.436;2022-09-09T03:50:34;10.05;;;5.90;;
61317;SDS011;47201;40.428;-8.436;2022-09-09T03:54:38;16.80;;;6.78;;
61317;SDS011;47201;40.428;-8.436;2022-09-09T03:56:39;24.73;;;9.18;;
61317;SDS011;47201;40.428;-8.436;2022-09-09T03:58:43;31.00;;;13.80;;
61317;SDS011;47201;40.428;-8.436;2022-09-09T04:03:00;36.33;;;15.07;;
61317;SDS011;47201;40.428;-8.436;2022-09-09T04:05:00;40.25;;;17.23;;
61317;SDS011;47201;40.428;-8.436;2022-09-09T04:07:02;39.60;;;17.92;;
61317;SDS011;47201;40.428;-8.436;2022-09-09T04:09:06;42.65;;;19.88;;
61317;SDS011;47201;40.428;-8.436;2022-09-09T04:11:07;40.30;;;18.75;;
61317;SDS011;47201;40.428;-8.436;2022-09-09T04:13:11;49.13;;;18.98;;
61317;SDS011;47201;40.428;-8.436;2022-09-09T04:15:13;40.63;;;17.73;;
61317;SDS011;47201;40.428;-8.436;2022-09-09T04:17:14;44.22;;;22.30;;
61317;SDS011;47201;40.428;-8.436;2022-09-09T04:21:17;47.92;;;21.92;;
61317;SDS011;47201;40.428;-8.436;2022-09-09T04:23:18;46.15;;;22.65;;
61317;SDS011;47201;40.428;-8.436;2022-09-09T04:25:20;58.65;;;24.30;;
61317;SDS011;47201;40.428;-8.436;2022-09-09T04:27:21;50.40;;;23.88;;
61317;SDS011;47201;40.428;-8.436;2022-09-09T04:29:22;48.42;;;23.95;;
61317;SDS011;47201;40.428;-8.436;2022-09-09T04:31:23;54.63;;;26.13;;
61317;SDS011;47201;40.428;-8.436;2022-09-09T04:33:26;52.30;;;23.52;;
61317;SDS011;47201;40.428;-8.436;2022-09-09T04:35:27;51.10;;;25.75;;
61317;SDS011;47201;40.428;-8.436;2022-09-09T04:37:29;48.70;;;20.63;;
61317;SDS011;47201;40.428;-8.436;2022-09-09T04:41:36;53.72;;;24.75;;
61317;SDS011;47201;40.428;-8.436;2022-09-09T04:43:38;56.50;;;22.88;;
61317;SDS011;47201;40.428;-8.436;2022-09-09T04:45:41;47.85;;;23.13;;
61317;SDS011;47201;40.428;-8.436;2022-09-09T04:47:42;55.35;;;25.98;;
61317;SDS011;47201;40.428;-8.436;2022-09-09T04:49:43;40.63;;;21.13;;
61317;SDS011;47201;40.428;-8.436;2022-09-09T04:53:47;36.85;;;19.48;;
61317;SDS011;47201;40.428;-8.436;2022-09-09T04:55:50;37.47;;;19.45;;
61317;SDS011;47201;40.428;-8.436;2022-09-09T04:57:51;36.83;;;17.42;;
61317;SDS011;47201;40.428;-8.436;2022-09-09T04:59:51;35.88;;;19.17;;
61317;SDS011;47201;40.428;-8.436;2022-09-09T05:01:52;29.02;;;16.75;;
61317;SDS011;47201;40.428;-8.436;2022-09-09T05:03:55;30.10;;;17.60;;
61317;SDS011;47201;40.428;-8.436;2022-09-09T05:06:06;28.75;;;16.45;;
61317;SDS011;47201;40.428;-8.436;2022-09-09T05:08:10;27.45;;;16.67;;
61317;SDS011;47201;40.428;-8.436;2022-09-09T05:10:11;33.88;;;17.17;;
61317;SDS011;47201;40.428;-8.436;2022-09-09T05:12:14;32.33;;;18.23;;
61317;SDS011;47201;40.428;-8.436;2022-09-09T05:14:24;21.75;;;13.07;;
61317;SDS011;47201;40.428;-8.436;2022-09-09T05:16:25;20.33;;;13.07;;
61317;SDS011;47201;40.428;-8.436;2022-09-09T05:18:27;20.48;;;10.43;;
61317;SDS011;47201;40.428;-8.436;2022-09-09T05:20:28;22.25;;;11.98;;
61317;SDS011;47201;40.428;-8.436;2022-09-09T05:22:29;13.60;;;9.18;;
61317;SDS011;47201;40.428;-8.436;2022-09-09T05:24:30;15.27;;;9.32;;
61317;SDS011;47201;40.428;-8.436;2022-09-09T05:26:36;13.15;;;8.85;;
61317;SDS011;47201;40.428;-8.436;2022-09-09T05:28:37;15.50;;;9.32;;
61317;SDS011;47201;40.428;-8.436;2022-09-09T05:30:38;17.20;;;10.70;;
61317;SDS011;47201;40.428;-8.436;2022-09-09T05:32:40;16.90;;;11.43;;
61317;SDS011;47201;40.428;-8.436;2022-09-09T05:34:41;14.70;;;9.63;;
61317;SDS011;47201;40.428;-8.436;2022-09-09T05:36:41;18.17;;;10.77;;
61317;SDS011;47201;40.428;-8.436;2022-09-09T05:38:43;13.23;;;9.45;;
61317;SDS011;47201;40.428;-8.436;2022-09-09T05:40:47;17.52;;;10.18;;
61317;SDS011;47201;40.428;-8.436;2022-09-09T05:42:49;16.27;;;9.75;;
61317;SDS011;47201;40.428;-8.436;2022-09-09T05:44:51;21.30;;;9.88;;
61317;SDS011;47201;40.428;-8.436;2022-09-09T05:46:55;9.73;;;6.85;;
61317;SDS011;47201;40.428;-8.436;2022-09-09T05:48:56;11.68;;;7.28;;
61317;SDS011;47201;40.428;-8.436;2022-09-09T05:51:05;17.02;;;7.85;;
61317;SDS011;47201;40.428;-8.436;2022-09-09T05:53:11;13.07;;;7.60;;
61317;SDS011;47201;40.428;-8.436;2022-09-09T05:55:12;9.18;;;6.30;;
61317;SDS011;47201;40.428;-8.436;2022-09-09T05:57:12;10.45;;;6.45;;
61317;SDS011;47201;40.428;-8.436;2022-09-09T05:59:13;18.25;;;6.93;;
61317;SDS011;47201;40.428;-8.436;2022-09-09T06:01:16;6.68;;;5.38;;
61317;SDS011;47201;40.428;-8.436;2022-09-09T06:03:18;10.98;;;6.25;;
61317;SDS011;47201;40.428;-8.436;2022-09-09T06:05:26;11.85;;;6.05;;
61317;SDS011;47201;40.428;-8.436;2022-09-09T06:07:28;11.52;;;6.88;;
61317;SDS011;47201;40.428;-8.436;2022-09-09T06:09:28;10.73;;;6.13;;
61317;SDS011;47201;40.428;-8.436;2022-09-09T06:11:30;7.78;;;6.15;;
61317;SDS011;47201;40.428;-8.436;2022-09-09T06:13:36;6.10;;;5.07;;
61317;SDS011;47201;40.428;-8.436;2022-09-09T06:15:48;8.07;;;5.68;;
61317;SDS011;47201;40.428;-8.436;2022-09-09T06:19:56;11.32;;;6.05;;
61317;SDS011;47201;40.428;-8.436;2022-09-09T06:21:57;7.82;;;6.70;;
61317;SDS011;47201;40.428;-8.436;2022-09-09T06:23:58;12.88;;;7.07;;
61317;SDS011;47201;40.428;-8.436;2022-09-09T06:28:21;12.27;;;6.97;;
61317;SDS011;47201;40.428;-8.436;2022-09-09T06:30:22;16.25;;;6.90;;
61317;SDS011;47201;40.428;-8.436;2022-09-09T06:32:23;6.30;;;5.78;;
61317;SDS011;47201;40.428;-8.436;2022-09-09T06:34:24;10.90;;;6.60;;
61317;SDS011;47201;40.428;-8.436;2022-09-09T06:36:29;12.50;;;7.35;;
61317;SDS011;47201;40.428;-8.436;2022-09-09T06:38:32;12.27;;;6.72;;
61317;SDS011;47201;40.428;-8.436;2022-09-09T06:40:33;9.18;;;6.90;;
61317;SDS011;47201;40.428;-8.436;2022-09-09T06:42:35;13.05;;;7.00;;
61317;SDS011;47201;40.428;-8.436;2022-09-09T06:44:56;11.10;;;6.10;;
61317;SDS011;47201;40.428;-8.436;2022-09-09T06:47:08;12.10;;;7.00;;
61317;SDS011;47201;40.428;-8.436;2022-09-09T06:49:09;10.93;;;7.22;;
61317;SDS011;47201;40.428;-8.436;2022-09-09T06:51:11;8.23;;;6.00;;
61317;SDS011;47201;40.428;-8.436;2022-09-09T06:53:12;10.77;;;7.22;;
61317;SDS011;47201;40.428;-8.436;2022-09-09T06:55:17;8.75;;;6.00;;
61317;SDS011;47201;40.428;-8.436;2022-09-09T06:57:18;8.60;;;7.18;;
61317;SDS011;47201;40.428;-8.436;2022-09-09T06:59:19;7.53;;;5.93;;
61317;SDS011;47201;40.428;-8.436;2022-09-09T07:01:22;8.88;;;5.97;;
61317;SDS011;47201;40.428;-8.436;2022-09-09T07:03:28;7.93;;;7.20;;
61317;SDS011;47201;40.428;-8.436;2022-09-09T07:07:29;9.50;;;7.30;;
61317;SDS011;47201;40.428;-8.436;2022-09-09T07:09:31;7.28;;;6.60;;
61317;SDS011;47201;40.428;-8.436;2022-09-09T07:13:34;11.63;;;7.30;;
61317;SDS011;47201;40.428;-8.436;2022-09-09T07:15:35;12.40;;;6.70;;
61317;SDS011;47201;40.428;-8.436;2022-09-09T07:17:36;12.20;;;6.97;;
61317;SDS011;47201;40.428;-8.436;2022-09-09T07:19:36;13.05;;;6.28;;
61317;SDS011;47201;40.428;-8.436;2022-09-09T07:21:38;7.65;;;5.90;;
61317;SDS011;47201;40.428;-8.436;2022-09-09T07:23:41;8.73;;;6.97;;
61317;SDS011;47201;40.428;-8.436;2022-09-09T07:25:45;9.25;;;6.43;;
61317;SDS011;47201;40.428;-8.436;2022-09-09T07:27:49;10.38;;;6.57;;
61317;SDS011;47201;40.428;-8.436;2022-09-09T07:29:50;13.63;;;6.50;;
61317;SDS011;47201;40.428;-8.436;2022-09-09T07:31:51;12.68;;;7.38;;
61317;SDS011;47201;40.428;-8.436;2022-09-09T07:33:58;11.63;;;8.63;;
61317;SDS011;47201;40.428;-8.436;2022-09-09T07:36:04;13.82;;;8.30;;
61317;SDS011;47201;40.428;-8.436;2022-09-09T07:38:11;16.65;;;10.27;;
61317;SDS011;47201;40.428;-8.436;2022-09-09T07:40:12;15.43;;;10.55;;
61317;SDS011;47201;40.428;-8.436;2022-09-09T07:42:13;12.35;;;10.23;;
61317;SDS011;47201;40.428;-8.436;2022-09-09T07:44:19;13.30;;;10.75;;
61317;SDS011;47201;40.428;-8.436;2022-09-09T07:46:25;15.07;;;10.38;;
61317;SDS011;47201;40.428;-8.436;2022-09-09T07:48:27;14.65;;;11.73;;
61317;SDS011;47201;40.428;-8.436;2022-09-09T07:50:28;14.98;;;9.95;;
61317;SDS011;47201;40.428;-8.436;2022-09-09T07:52:29;1.73;;;1.73;;
61317;SDS011;47201;40.428;-8.436;2022-09-09T07:54:34;1.58;;;1.48;;
61317;SDS011;47201;40.428;-8.436;2022-09-09T07:56:38;2.47;;;2.33;;
61317;SDS011;47201;40.428;-8.436;2022-09-09T07:58:41;3.17;;;2.80;;
61317;SDS011;47201;40.428;-8.436;2022-09-09T08:02:44;8.50;;;6.68;;
61317;SDS011;47201;40.428;-8.436;2022-09-09T08:04:46;5.80;;;5.25;;
61317;SDS011;47201;40.428;-8.436;2022-09-09T08:06:55;7.95;;;7.18;;
61317;SDS011;47201;40.428;-8.436;2022-09-09T08:08:59;6.55;;;5.60;;
61317;SDS011;47201;40.428;-8.436;2022-09-09T08:11:50;8.83;;;5.67;;
61317;SDS011;47201;40.428;-8.436;2022-09-09T08:13:51;8.35;;;6.82;;
61317;SDS011;47201;40.428;-8.436;2022-09-09T08:15:52;6.60;;;5.97;;
61317;SDS011;47201;40.428;-8.436;2022-09-09T08:17:53;8.13;;;6.35;;
61317;SDS011;47201;40.428;-8.436;2022-09-09T08:19:56;9.95;;;6.05;;
61317;SDS011;47201;40.428;-8.436;2022-09-09T08:22:00;18.48;;;6.55;;
61317;SDS011;47201;40.428;-8.436;2022-09-09T08:24:02;6.38;;;5.75;;
61317;SDS011;47201;40.428;-8.436;2022-09-09T08:26:06;7.20;;;5.68;;
61317;SDS011;47201;40.428;-8.436;2022-09-09T08:28:17;5.10;;;4.07;;
61317;SDS011;47201;40.428;-8.436;2022-09-09T08:30:19;9.35;;;4.40;;
61317;SDS011;47201;40.428;-8.436;2022-09-09T08:34:20;7.75;;;6.90;;
61317;SDS011;47201;40.428;-8.436;2022-09-09T08:36:24;6.47;;;5.88;;
61317;SDS011;47201;40.428;-8.436;2022-09-09T08:38:26;31.98;;;9.90;;
61317;SDS011;47201;40.428;-8.436;2022-09-09T08:42:44;16.65;;;7.07;;
61317;SDS011;47201;40.428;-8.436;2022-09-09T08:51:29;4.57;;;3.88;;
61317;SDS011;47201;40.428;-8.436;2022-09-09T08:53:44;9.23;;;4.57;;
61317;SDS011;47201;40.428;-8.436;2022-09-09T08:56:03;4.55;;;3.25;;
61317;SDS011;47201;40.428;-8.436;2022-09-09T08:58:21;6.75;;;4.32;;
61317;SDS011;47201;40.428;-8.436;2022-09-09T09:00:31;11.48;;;5.47;;
61317;SDS011;47201;40.428;-8.436;2022-09-09T09:03:04;8.38;;;4.25;;
61317;SDS011;47201;40.428;-8.436;2022-09-09T09:09:40;5.43;;;4.55;;
61317;SDS011;47201;40.428;-8.436;2022-09-09T09:12:00;7.22;;;4.40;;
61317;SDS011;47201;40.428;-8.436;2022-09-09T09:16:23;3.55;;;3.28;;
61317;SDS011;47201;40.428;-8.436;2022-09-09T09:18:39;5.90;;;3.50;;
61317;SDS011;47201;40.428;-8.436;2022-09-09T09:22:53;4.20;;;3.80;;
61317;SDS011;47201;40.428;-8.436;2022-09-09T09:29:37;3.80;;;3.10;;
61317;SDS011;47201;40.428;-8.436;2022-09-09T09:31:41;4.68;;;3.47;;
61317;SDS011;47201;40.428;-8.436;2022-09-09T09:33:47;4.22;;;3.55;;
61317;SDS011;47201;40.428;-8.436;2022-09-09T09:35:56;4.80;;;3.60;;
61317;SDS011;47201;40.428;-8.436;2022-09-09T09:37:57;4.22;;;3.85;;
61317;SDS011;47201;40.428;-8.436;2022-09-09T09:42:18;7.00;;;5.07;;
61317;SDS011;47201;40.428;-8.436;2022-09-09T09:44:31;5.80;;;3.80;;
61317;SDS011;47201;40.428;-8.436;2022-09-09T09:46:41;5.05;;;3.67;;
61317;SDS011;47201;40.428;-8.436;2022-09-09T09:48:55;5.05;;;4.43;;
61317;SDS011;47201;40.428;-8.436;2022-09-09T09:51:09;5.10;;;3.90;;
61317;SDS011;47201;40.428;-8.436;2022-09-09T09:53:18;4.05;;;3.55;;
61317;SDS011;47201;40.428;-8.436;2022-09-09T09:55:24;5.20;;;4.75;;
61317;SDS011;47201;40.428;-8.436;2022-09-09T09:57:27;4.32;;;3.90;;
61317;SDS011;47201;40.428;-8.436;2022-09-09T09:59:34;3.70;;;3.50;;
61317;SDS011;47201;40.428;-8.436;2022-09-09T10:01:37;4.95;;;3.92;;
61317;SDS011;47201;40.428;-8.436;2022-09-09T10:03:49;5.13;;;3.40;;
61317;SDS011;47201;40.428;-8.436;2022-09-09T10:05:55;3.03;;;2.83;;
61317;SDS011;47201;40.428;-8.436;2022-09-09T10:08:04;3.80;;;3.47;;
61317;SDS011;47201;40.428;-8.436;2022-09-09T10:10:11;6.25;;;4.35;;
61317;SDS011;47201;40.428;-8.436;2022-09-09T10:19:10;4.63;;;3.67;;
61317;SDS011;47201;40.428;-8.436;2022-09-09T10:21:25;3.70;;;3.40;;
61317;SDS011;47201;40.428;-8.436;2022-09-09T10:25:57;3.97;;;3.45;;
61317;SDS011;47201;40.428;-8.436;2022-09-09T10:30:19;5.30;;;3.33;;
61317;SDS011;47201;40.428;-8.436;2022-09-09T10:32:45;3.55;;;3.35;;
61317;SDS011;47201;40.428;-8.436;2022-09-09T10:36:55;3.97;;;3.67;;
61317;SDS011;47201;40.428;-8.436;2022-09-09T10:39:01;3.83;;;3.53;;
61317;SDS011;47201;40.428;-8.436;2022-09-09T10:43:43;4.22;;;3.90;;
61317;SDS011;47201;40.428;-8.436;2022-09-09T10:55:06;4.15;;;3.80;;
61317;SDS011;47201;40.428;-8.436;2022-09-09T10:57:13;4.70;;;3.78;;
61317;SDS011;47201;40.428;-8.436;2022-09-09T10:59:29;4.50;;;4.10;;
61317;SDS011;47201;40.428;-8.436;2022-09-09T11:01:43;4.13;;;3.88;;
61317;SDS011;47201;40.428;-8.436;2022-09-09T11:03:52;4.63;;;4.22;;
61317;SDS011;47201;40.428;-8.436;2022-09-09T11:06:03;4.80;;;3.28;;
61317;SDS011;47201;40.428;-8.436;2022-09-09T11:08:17;4.80;;;3.65;;
61317;SDS011;47201;40.428;-8.436;2022-09-09T11:10:34;5.78;;;3.60;;
61317;SDS011;47201;40.428;-8.436;2022-09-09T11:12:40;6.75;;;3.65;;
61317;SDS011;47201;40.428;-8.436;2022-09-09T11:14:51;4.45;;;3.35;;
61317;SDS011;47201;40.428;-8.436;2022-09-09T11:17:03;5.05;;;4.53;;
61317;SDS011;47201;40.428;-8.436;2022-09-09T11:23:42;6.57;;;4.45;;
61317;SDS011;47201;40.428;-8.436;2022-09-09T11:25:53;5.90;;;4.40;;
61317;SDS011;47201;40.428;-8.436;2022-09-09T11:30:19;6.50;;;4.50;;
61317;SDS011;47201;40.428;-8.436;2022-09-09T11:32:33;4.55;;;4.03;;
61317;SDS011;47201;40.428;-8.436;2022-09-09T11:34:49;4.22;;;3.92;;
61317;SDS011;47201;40.428;-8.436;2022-09-09T11:37:22;4.47;;;4.07;;
61317;SDS011;47201;40.428;-8.436;2022-09-09T11:42:15;3.60;;;3.30;;
61317;SDS011;47201;40.428;-8.436;2022-09-09T11:44:26;4.90;;;4.40;;
61317;SDS011;47201;40.428;-8.436;2022-09-09T11:46:34;4.55;;;4.10;;
61317;SDS011;47201;40.428;-8.436;2022-09-09T11:48:39;6.47;;;3.92;;
61317;SDS011;47201;40.428;-8.436;2022-09-09T11:50:45;7.80;;;3.83;;
61317;SDS011;47201;40.428;-8.436;2022-09-09T11:53:05;6.05;;;3.67;;
61317;SDS011;47201;40.428;-8.436;2022-09-09T11:55:29;4.65;;;3.78;;
61317;SDS011;47201;40.428;-8.436;2022-09-09T11:57:36;5.22;;;3.35;;
61317;SDS011;47201;40.428;-8.436;2022-09-09T11:59:37;6.05;;;3.20;;
61317;SDS011;47201;40.428;-8.436;2022-09-09T12:01:44;5.50;;;2.92;;
61317;SDS011;47201;40.428;-8.436;2022-09-09T12:03:49;3.13;;;2.92;;
61317;SDS011;47201;40.428;-8.436;2022-09-09T12:05:56;3.15;;;2.90;;
61317;SDS011;47201;40.428;-8.436;2022-09-09T12:07:58;2.85;;;2.72;;
61317;SDS011;47201;40.428;-8.436;2022-09-09T12:10:04;5.25;;;3.13;;
61317;SDS011;47201;40.428;-8.436;2022-09-09T12:12:28;6.53;;;3.45;;
61317;SDS011;47201;40.428;-8.436;2022-09-09T12:16:43;7.07;;;3.65;;
61317;SDS011;47201;40.428;-8.436;2022-09-09T12:18:44;7.57;;;3.88;;
61317;SDS011;47201;40.428;-8.436;2022-09-09T12:20:54;6.93;;;4.35;;
61317;SDS011;47201;40.428;-8.436;2022-09-09T12:30:14;4.28;;;3.90;;
61317;SDS011;47201;40.428;-8.436;2022-09-09T12:32:17;5.82;;;4.28;;
61317;SDS011;47201;40.428;-8.436;2022-09-09T12:36:38;4.38;;;3.97;;
61317;SDS011;47201;40.428;-8.436;2022-09-09T12:38:41;3.80;;;3.50;;
61317;SDS011;47201;40.428;-8.436;2022-09-09T12:40:43;3.60;;;3.30;;
61317;SDS011;47201;40.428;-8.436;2022-09-09T12:42:54;3.25;;;3.15;;
61317;SDS011;47201;40.428;-8.436;2022-09-09T12:44:57;3.53;;;3.33;;
61317;SDS011;47201;40.428;-8.436;2022-09-09T12:47:00;5.20;;;3.33;;
61317;SDS011;47201;40.428;-8.436;2022-09-09T12:51:28;4.28;;;3.17;;
61317;SDS011;47201;40.428;-8.436;2022-09-09T12:53:34;3.58;;;3.30;;
61317;SDS011;47201;40.428;-8.436;2022-09-09T12:55:36;2.88;;;2.78;;
61317;SDS011;47201;40.428;-8.436;2022-09-09T12:57:39;4.38;;;3.05;;
61317;SDS011;47201;40.428;-8.436;2022-09-09T12:59:41;3.25;;;3.13;;
61317;SDS011;47201;40.428;-8.436;2022-09-09T13:01:45;3.42;;;3.22;;
61317;SDS011;47201;40.428;-8.436;2022-09-09T13:03:56;3.95;;;3.53;;
61317;SDS011;47201;40.428;-8.436;2022-09-09T13:05:59;3.50;;;3.30;;
61317;SDS011;47201;40.428;-8.436;2022-09-09T13:08:13;3.47;;;3.25;;
61317;SDS011;47201;40.428;-8.436;2022-09-09T13:10:15;3.67;;;3.47;;
61317;SDS011;47201;40.428;-8.436;2022-09-09T13:12:29;4.38;;;3.33;;
61317;SDS011;47201;40.428;-8.436;2022-09-09T13:14:30;3.47;;;3.28;;
61317;SDS011;47201;40.428;-8.436;2022-09-09T13:16:35;4.05;;;3.75;;
61317;SDS011;47201;40.428;-8.436;2022-09-09T13:18:37;4.53;;;4.30;;
61317;SDS011;47201;40.428;-8.436;2022-09-09T13:20:45;4.28;;;3.88;;
61317;SDS011;47201;40.428;-8.436;2022-09-09T13:22:49;5.20;;;4.80;;
61317;SDS011;47201;40.428;-8.436;2022-09-09T13:24:59;4.25;;;3.95;;
61317;SDS011;47201;40.428;-8.436;2022-09-09T13:27:04;5.00;;;4.57;;
61317;SDS011;47201;40.428;-8.436;2022-09-09T13:29:20;10.02;;;4.57;;
61317;SDS011;47201;40.428;-8.436;2022-09-09T13:31:23;4.32;;;3.88;;
61317;SDS011;47201;40.428;-8.436;2022-09-09T13:36:15;4.95;;;4.55;;
61317;SDS011;47201;40.428;-8.436;2022-09-09T13:37:59;5.32;;;4.53;;
61317;SDS011;47201;40.428;-8.436;2022-09-09T13:40:18;6.25;;;5.68;;
61317;SDS011;47201;40.428;-8.436;2022-09-09T13:42:24;10.80;;;6.50;;
61317;SDS011;47201;40.428;-8.436;2022-09-09T13:44:30;9.35;;;5.57;;
61317;SDS011;47201;40.428;-8.436;2022-09-09T13:46:41;7.43;;;6.82;;
61317;SDS011;47201;40.428;-8.436;2022-09-09T13:48:42;7.93;;;6.88;;
61317;SDS011;47201;40.428;-8.436;2022-09-09T13:53:41;10.20;;;6.47;;
61317;SDS011;47201;40.428;-8.436;2022-09-09T13:55:41;7.13;;;6.00;;
61317;SDS011;47201;40.428;-8.436;2022-09-09T13:57:58;6.93;;;6.22;;
61317;SDS011;47201;40.428;-8.436;2022-09-09T14:00:05;6.78;;;5.90;;
61317;SDS011;47201;40.428;-8.436;2022-09-09T14:02:08;6.07;;;5.68;;
61317;SDS011;47201;40.428;-8.436;2022-09-09T14:04:09;6.28;;;5.78;;
61317;SDS011;47201;40.428;-8.436;2022-09-09T14:06:10;7.70;;;6.50;;
61317;SDS011;47201;40.428;-8.436;2022-09-09T14:08:15;6.90;;;6.30;;
61317;SDS011;47201;40.428;-8.436;2022-09-09T14:10:21;8.35;;;5.72;;
61317;SDS011;47201;40.428;-8.436;2022-09-09T14:12:22;6.78;;;6.07;;
61317;SDS011;47201;40.428;-8.436;2022-09-09T14:14:24;6.43;;;5.90;;
61317;SDS011;47201;40.428;-8.436;2022-09-09T14:16:25;6.25;;;5.68;;
61317;SDS011;47201;40.428;-8.436;2022-09-09T14:18:27;8.50;;;6.55;;
61317;SDS011;47201;40.428;-8.436;2022-09-09T14:20:29;6.13;;;5.63;;
61317;SDS011;47201;40.428;-8.436;2022-09-09T14:22:30;6.65;;;6.07;;
61317;SDS011;47201;40.428;-8.436;2022-09-09T14:24:30;6.90;;;5.88;;
61317;SDS011;47201;40.428;-8.436;2022-09-09T14:26:31;9.70;;;5.53;;
61317;SDS011;47201;40.428;-8.436;2022-09-09T14:28:32;5.78;;;5.38;;
61317;SDS011;47201;40.428;-8.436;2022-09-09T14:30:37;5.25;;;4.95;;
61317;SDS011;47201;40.428;-8.436;2022-09-09T14:32:39;7.45;;;5.53;;
61317;SDS011;47201;40.428;-8.436;2022-09-09T14:34:40;6.80;;;5.57;;
61317;SDS011;47201;40.428;-8.436;2022-09-09T14:36:41;6.07;;;5.47;;
61317;SDS011;47201;40.428;-8.436;2022-09-09T14:38:41;5.75;;;5.35;;
61317;SDS011;47201;40.428;-8.436;2022-09-09T14:40:44;5.40;;;5.00;;
61317;SDS011;47201;40.428;-8.436;2022-09-09T14:42:46;6.00;;;5.47;;
61317;SDS011;47201;40.428;-8.436;2022-09-09T14:44:46;5.45;;;5.05;;
61317;SDS011;47201;40.428;-8.436;2022-09-09T14:46:48;5.28;;;4.97;;
61317;SDS011;47201;40.428;-8.436;2022-09-09T14:48:50;6.43;;;5.82;;
61317;SDS011;47201;40.428;-8.436;2022-09-09T14:50:51;5.93;;;5.40;;
61317;SDS011;47201;40.428;-8.436;2022-09-09T14:52:51;7.50;;;5.43;;
61317;SDS011;47201;40.428;-8.436;2022-09-09T14:54:52;7.68;;;5.35;;
61317;SDS011;47201;40.428;-8.436;2022-09-09T14:56:53;5.97;;;5.35;;
61317;SDS011;47201;40.428;-8.436;2022-09-09T14:58:54;5.72;;;5.32;;
61317;SDS011;47201;40.428;-8.436;2022-09-09T15:01:01;5.57;;;5.18;;
61317;SDS011;47201;40.428;-8.436;2022-09-09T15:03:05;6.53;;;5.13;;
61317;SDS011;47201;40.428;-8.436;2022-09-09T15:05:06;5.22;;;4.88;;